Weather at Bern Belp Airport

Public forecast

Using degrees Celsius for public forecast. Weather courtesy of forecast.io.

Current aviation weather report (METAR) for Bern Belp Airport

Retrieved 2020/10/25 15:20 UTC (21 minutes ago):

LSZB 251520Z 34006KT CAVOK 14/08 Q1007 NOSIG

Closest aviation forecast (TAF) to Bern Belp Airport

Closest forecast is Payerne Air Base, 24.3 nm (44.9 km) W. Retrieved 2020/10/25 10:00 UTC (6 hours ago):

TAF LSMP 250925Z 2510/2616 VRB03KT CAVOK BECMG 2518/2520 9999 BKN080 TEMPO 2601/2610 4500 RA BKN014